Letham, United Kingdom
Current Conditions -  °F | °C
As of 3:50 PM on Sunday 21 Dec 2014 (Local Time) from EGPN Reporting Station
Light Rain Light Rain  
Wind Chill: 50°   Ceiling: 1400
Heat Index: 50°   Visibility: 6mi
Dew Point: 46°   Wind: 31mph
Humidity: 87%   Direction: 250°WSW
Pressure: 29.62"   Gusts: 44mph
Location:  56.62°N, 2.77°W
Report Text: EGPN 211550Z 25027G38KT 9999 -RA SCT010 BKN014 10/08 Q1003
Loading
Personal Weather Stations






























Interactive Weather Map New forecast layout! Learn more

10-Day Weather Forecast

Advertisements
Track Severe Weather on mobile